createdAt,value
2018-11-20T00:00:42.291Z,58.78
2018-11-20T00:03:32.328Z,58.93
2018-11-20T00:06:13.444Z,59.28
2018-11-20T00:09:01.652Z,59.67
2018-11-20T00:11:50.428Z,59.49
2018-11-20T00:14:47.884Z,60.33
2018-11-20T00:17:36.347Z,60.25
2018-11-20T00:20:37.412Z,60.48
2018-11-20T00:23:30.154Z,60.86
2018-11-20T00:26:16.130Z,61.23
2018-11-20T00:29:11.112Z,61.60
2018-11-20T00:32:09.173Z,61.87
2018-11-20T00:34:58.561Z,62.08
2018-11-20T00:37:45.972Z,62.51
2018-11-20T00:40:50.161Z,62.58
2018-11-20T00:43:54.568Z,62.99
2018-11-20T00:46:51.780Z,63.83
2018-11-20T00:49:41.279Z,64.19
2018-11-20T00:52:36.097Z,64.48
2018-11-20T00:56:02.987Z,64.12
2018-11-20T00:58:53.539Z,64.31
2018-11-20T01:01:41.054Z,63.99
2018-11-20T01:04:48.046Z,63.80
2018-11-20T01:07:43.322Z,63.52
2018-11-20T01:10:31.498Z,63.49
2018-11-20T01:13:10.438Z,63.87
2018-11-20T01:16:17.228Z,63.71
2018-11-20T01:19:09.796Z,63.43
2018-11-20T01:22:31.910Z,63.48
2018-11-20T01:28:03.448Z,63.64
2018-11-20T01:28:11.072Z,63.71
2018-11-20T01:31:43.826Z,63.87
2018-11-20T01:36:02.036Z,64.07
2018-11-20T01:39:50.448Z,64.22
2018-11-20T01:42:37.913Z,64.09
2018-11-20T01:50:33.136Z,64.74
2018-11-20T01:55:21.376Z,64.73
2018-11-20T01:56:39.190Z,65.03
2018-11-20T02:02:14.856Z,65.03
2018-11-20T02:04:02.962Z,64.70
2018-11-20T02:08:54.289Z,64.57
2018-11-20T02:10:35.615Z,64.44
2018-11-20T02:14:21.016Z,64.60
2018-11-20T02:21:43.017Z,64.80
2018-11-20T02:25:39.791Z,64.89
2018-11-20T02:29:40.333Z,64.90
2018-11-20T02:43:01.356Z,65.57
2018-11-20T02:46:08.201Z,65.52
2018-11-20T02:49:21.392Z,65.25
2018-11-20T03:00:41.575Z,65.87
2018-11-20T03:04:34.812Z,65.93
2018-11-20T03:16:25.930Z,66.48
2018-11-20T03:26:40.551Z,67.06
2018-11-20T03:30:43.891Z,66.80
2018-11-20T03:37:17.871Z,66.48
2018-11-20T03:48:32.017Z,67.48
2018-11-20T03:51:12.622Z,67.50
2018-11-20T03:54:40.749Z,67.52
2018-11-20T04:08:17.936Z,67.02
2018-11-20T04:11:59.945Z,66.57
2018-11-20T04:18:39.761Z,66.58
2018-11-20T04:22:13.293Z,66.45
2018-11-20T04:30:51.002Z,65.75
2018-11-20T04:34:52.646Z,65.95
2018-11-20T04:38:41.457Z,65.73
2018-11-20T04:48:18.985Z,65.61
2018-11-20T04:55:18.205Z,65.37
2018-11-20T05:02:23.467Z,65.63
2018-11-20T05:21:00.789Z,65.83
2018-11-20T05:28:44.276Z,65.77
2018-11-20T05:35:22.114Z,66.30
2018-11-20T05:42:20.275Z,66.33
2018-11-20T05:46:21.913Z,66.03
2018-11-20T05:49:02.742Z,66.14
2018-11-20T05:52:40.243Z,66.28
2018-11-20T05:56:02.753Z,66.22
2018-11-20T06:02:19.523Z,65.78
2018-11-20T06:09:07.723Z,65.53
2018-11-20T06:12:32.182Z,65.17
2018-11-20T06:16:55.540Z,64.69
2018-11-20T06:19:47.441Z,64.71
2018-11-20T06:23:03.513Z,64.22
2018-11-20T06:34:04.800Z,64.10
2018-11-20T06:37:42.576Z,64.20
2018-11-20T06:41:17.262Z,64.57
2018-11-20T06:44:13.930Z,64.41
2018-11-20T06:47:45.941Z,64.69
2018-11-20T06:51:18.919Z,64.43
2018-11-20T06:54:19.600Z,64.62
2018-11-20T06:59:00.394Z,64.85
2018-11-20T07:02:21.229Z,64.78
2018-11-20T07:03:34.715Z,64.66
2018-11-20T07:06:29.202Z,64.77
2018-11-20T07:09:23.261Z,64.81
2018-11-20T07:12:21.069Z,64.69
2018-11-20T07:15:12.524Z,64.86
2018-11-20T07:17:59.524Z,65.13
2018-11-20T07:21:01.727Z,64.61
2018-11-20T07:23:40.170Z,64.70
2018-11-20T07:26:41.285Z,64.61
2018-11-20T07:29:44.732Z,64.79
2018-11-20T07:32:46.974Z,65.24
2018-11-20T07:35:41.285Z,65.22
2018-11-20T07:38:38.945Z,64.92
2018-11-20T07:41:31.026Z,65.22
2018-11-20T07:44:18.243Z,65.33
2018-11-20T07:47:02.030Z,65.25
2018-11-20T07:49:47.846Z,65.30
2018-11-20T07:52:45.003Z,65.22
2018-11-20T07:55:31.806Z,65.08
2018-11-20T07:58:21.619Z,65.32
2018-11-20T08:01:09.651Z,65.71
2018-11-20T08:03:57.692Z,65.40
2018-11-20T08:06:49.565Z,65.60
2018-11-20T08:09:43.978Z,65.43
2018-11-20T08:12:38.370Z,65.34
2018-11-20T08:15:30.101Z,65.29
2018-11-20T08:18:12.953Z,65.46
2018-11-20T08:21:04.701Z,65.72
2018-11-20T08:24:07.278Z,65.71
2018-11-20T08:26:55.480Z,65.96
2018-11-20T08:29:52.209Z,65.21
2018-11-20T08:32:43.795Z,65.46
2018-11-20T08:35:23.620Z,65.62
2018-11-20T08:38:11.972Z,65.89
2018-11-20T08:41:03.899Z,65.37
2018-11-20T08:43:58.320Z,65.45
2018-11-20T08:46:42.778Z,65.84
2018-11-20T08:49:30.448Z,65.64
2018-11-20T08:52:19.070Z,65.30
2018-11-20T08:55:16.615Z,65.48
2018-11-20T08:57:58.257Z,65.88
2018-11-20T09:00:45.372Z,65.67
2018-11-20T09:03:45.871Z,65.69
2018-11-20T09:06:28.501Z,65.71
2018-11-20T09:09:25.773Z,65.75
2018-11-20T09:12:11.948Z,65.81
2018-11-20T09:15:13.983Z,65.92
2018-11-20T09:17:57.501Z,65.91
2018-11-20T09:20:51.852Z,65.89
2018-11-20T09:23:41.341Z,65.90
2018-11-20T09:26:26.304Z,66.05
2018-11-20T09:29:10.717Z,65.95
2018-11-20T09:32:03.460Z,65.63
2018-11-20T09:35:08.398Z,65.51
2018-11-20T09:37:55.239Z,65.84
2018-11-20T09:41:30.258Z,65.65
2018-11-20T09:45:08.627Z,65.43
2018-11-20T09:48:03.415Z,65.46
2018-11-20T09:50:51.106Z,65.43
2018-11-20T09:53:38.194Z,65.41
2018-11-20T09:56:35.246Z,65.70
2018-11-20T09:59:23.048Z,65.30
2018-11-20T10:02:30.930Z,65.66
2018-11-20T10:05:22.673Z,65.96
2018-11-20T10:08:16.113Z,65.83
2018-11-20T10:11:06.476Z,65.75
2018-11-20T10:13:53.912Z,65.44
2018-11-20T10:16:51.391Z,65.71
2018-11-20T10:19:32.734Z,65.87
2018-11-20T10:22:20.039Z,66.02
2018-11-20T10:25:05.750Z,66.17
2018-11-20T10:27:57.602Z,65.89
2018-11-20T10:30:44.583Z,65.93
2018-11-20T10:33:50.158Z,66.23
2018-11-20T10:36:38.787Z,66.46
2018-11-20T10:39:31.095Z,66.25
2018-11-20T10:42:20.610Z,66.45
2018-11-20T10:45:11.729Z,66.45
2018-11-20T10:47:59.367Z,66.55
2018-11-20T10:50:47.584Z,66.11
2018-11-20T10:53:44.873Z,66.17
2018-11-20T10:56:32.358Z,66.42
2018-11-20T10:59:41.535Z,66.36
2018-11-20T11:02:28.627Z,66.38
2018-11-20T11:05:18.834Z,66.65
2018-11-20T11:08:07.617Z,66.76
2018-11-20T11:10:54.500Z,66.71
2018-11-20T11:13:41.873Z,66.41
2018-11-20T11:16:41.514Z,66.21
2018-11-20T11:19:36.973Z,66.30
2018-11-20T11:22:29.997Z,66.58
2018-11-20T11:25:32.828Z,66.68
2018-11-20T11:28:20.721Z,66.45
2018-11-20T11:31:10.360Z,66.16
2018-11-20T11:34:01.483Z,66.06
2018-11-20T11:36:49.042Z,66.32
2018-11-20T11:39:38.284Z,66.13
2018-11-20T11:42:17.711Z,65.90
2018-11-20T11:45:11.353Z,66.33
2018-11-20T11:49:34.470Z,66.34
2018-11-20T11:55:20.428Z,66.29
2018-11-20T11:58:52.792Z,66.12
2018-11-20T12:12:39.014Z,65.91
2018-11-20T12:15:23.076Z,65.54
2018-11-20T12:18:45.561Z,65.96
2018-11-20T12:32:55.103Z,66.03
2018-11-20T12:36:56.075Z,66.04
2018-11-20T12:41:07.383Z,65.85
2018-11-20T12:44:20.206Z,65.92
2018-11-20T12:47:18.072Z,66.06
2018-11-20T12:54:52.308Z,65.91
2018-11-20T13:02:46.708Z,66.36
2018-11-20T13:05:37.296Z,66.19
2018-11-20T13:09:49.687Z,66.42
2018-11-20T13:12:49.694Z,66.77
2018-11-20T13:16:42.933Z,66.93
2018-11-20T13:19:57.421Z,67.16
2018-11-20T13:49:32.314Z,67.23
2018-11-20T13:52:23.633Z,67.33
2018-11-20T14:02:02.432Z,66.75
2018-11-20T14:04:49.601Z,66.18
2018-11-20T14:07:54.632Z,65.95
2018-11-20T14:10:46.052Z,66.05
2018-11-20T14:13:38.035Z,66.24
2018-11-20T14:16:28.864Z,66.24
2018-11-20T14:19:19.854Z,66.40
2018-11-20T14:22:03.422Z,66.16
2018-11-20T14:24:56.971Z,66.11
2018-11-20T14:27:55.810Z,66.15
2018-11-20T14:30:46.378Z,66.57
2018-11-20T14:33:42.837Z,66.60
2018-11-20T14:36:37.193Z,66.67
2018-11-20T14:39:15.365Z,66.96
2018-11-20T14:41:54.334Z,67.30
2018-11-20T14:44:48.842Z,67.42
2018-11-20T14:47:42.365Z,67.56
2018-11-20T14:50:31.655Z,67.34
2018-11-20T14:58:33.863Z,68.23
2018-11-20T15:06:42.141Z,70.94
2018-11-20T15:14:51.213Z,74.85
2018-11-20T15:22:29.154Z,78.14
2018-11-20T15:44:11.694Z,81.66
2018-11-20T15:47:01.023Z,81.74
2018-11-20T15:49:50.841Z,81.68
2018-11-20T15:52:31.514Z,82.32
2018-11-20T15:55:32.078Z,82.58
2018-11-20T15:58:20.463Z,82.57
2018-11-20T16:01:23.216Z,82.45
2018-11-20T16:04:07.148Z,82.55
2018-11-20T16:06:54.469Z,82.68
2018-11-20T16:09:51.546Z,82.77
2018-11-20T16:12:47.688Z,82.91
2018-11-20T16:15:34.822Z,83.00
2018-11-20T16:18:24.071Z,83.25
2018-11-20T16:21:28.406Z,83.19
2018-11-20T16:24:16.320Z,83.31
2018-11-20T16:27:03.793Z,83.55
2018-11-20T16:30:01.807Z,83.75
2018-11-20T16:32:48.138Z,83.88
2018-11-20T16:35:36.569Z,83.83
2018-11-20T16:38:23.985Z,84.13
2018-11-20T16:41:14.085Z,84.22
2018-11-20T16:44:02.877Z,84.02
2018-11-20T16:47:06.813Z,84.12
2018-11-20T16:50:01.156Z,84.34
2018-11-20T16:52:52.289Z,84.50
2018-11-20T16:55:28.740Z,84.56
2018-11-20T16:58:16.177Z,84.39
2018-11-20T17:00:57.587Z,84.48
2018-11-20T17:03:51.776Z,84.60
2018-11-20T17:06:34.019Z,84.68
2018-11-20T17:09:21.043Z,84.92
2018-11-20T17:12:24.473Z,84.76
2018-11-20T17:15:11.489Z,84.84
2018-11-20T17:18:06.289Z,84.97
2018-11-20T17:21:14.350Z,84.83
2018-11-20T17:24:03.689Z,84.95
2018-11-20T17:26:48.978Z,84.87
2018-11-20T17:29:37.403Z,85.01
2018-11-20T17:32:22.580Z,84.83
2018-11-20T17:35:12.534Z,84.89
2018-11-20T17:37:51.758Z,84.55
2018-11-20T17:40:39.145Z,84.63
2018-11-20T17:43:26.645Z,84.35
2018-11-20T17:46:06.119Z,84.37
2018-11-20T17:48:57.885Z,84.37
2018-11-20T17:51:47.741Z,84.61
2018-11-20T17:54:34.694Z,84.29
2018-11-20T17:57:26.172Z,84.36
2018-11-20T18:00:27.763Z,83.98
2018-11-20T18:03:06.115Z,83.99
2018-11-20T18:06:13.236Z,84.15
2018-11-20T18:09:13.978Z,83.94
2018-11-20T18:12:14.298Z,83.93
2018-11-20T18:15:20.985Z,84.00
2018-11-20T18:18:08.570Z,84.35
2018-11-20T18:20:56.058Z,84.00
2018-11-20T18:26:21.010Z,83.92
2018-11-20T18:29:07.914Z,83.76
2018-11-20T18:31:56.374Z,83.22
2018-11-20T18:34:46.640Z,83.35
2018-11-20T18:37:35.699Z,83.43
2018-11-20T18:40:41.319Z,83.44
2018-11-20T18:43:37.284Z,83.32
2018-11-20T18:46:25.382Z,83.02
2018-11-20T18:49:12.640Z,82.99
2018-11-20T18:52:16.998Z,83.11
2018-11-20T18:55:11.646Z,83.06
2018-11-20T18:58:11.895Z,82.87
2018-11-20T19:01:18.281Z,82.88
2018-11-20T19:04:26.231Z,82.63
2018-11-20T19:07:14.761Z,82.67
2018-11-20T19:10:01.708Z,82.27
2018-11-20T19:13:02.460Z,81.51
2018-11-20T19:15:51.200Z,81.33
2018-11-20T19:18:43.925Z,81.50
2018-11-20T19:21:38.106Z,81.42
2018-11-20T19:24:32.491Z,81.27
2018-11-20T19:27:23.840Z,81.46
2018-11-20T19:30:17.155Z,81.10
2018-11-20T19:33:17.895Z,81.19
2018-11-20T19:35:58.754Z,81.24
2018-11-20T19:38:46.176Z,80.96
2018-11-20T19:41:33.003Z,80.90
2018-11-20T19:44:40.159Z,80.86
2018-11-20T19:47:27.398Z,80.70
2018-11-20T19:50:22.138Z,81.00
2018-11-20T19:53:08.198Z,81.18
2018-11-20T19:56:08.889Z,80.99
2018-11-20T19:58:59.782Z,80.71
2018-11-20T20:02:06.189Z,80.82
2018-11-20T20:05:03.893Z,80.82
2018-11-20T20:07:54.811Z,80.84
2018-11-20T20:10:48.662Z,80.84
2018-11-20T20:13:37.310Z,80.78
2018-11-20T20:16:35.425Z,80.89
2018-11-20T20:19:20.904Z,81.06
2018-11-20T20:22:08.934Z,81.01
2018-11-20T20:25:09.484Z,80.71
2018-11-20T20:28:04.544Z,80.72
2018-11-20T20:30:46.176Z,80.68
2018-11-20T20:33:34.749Z,80.45
2018-11-20T20:36:22.141Z,80.36
2018-11-20T20:39:13.477Z,80.09
2018-11-20T20:42:01.009Z,79.92
2018-11-20T20:44:58.574Z,80.08
2018-11-20T20:47:56.398Z,79.92
2018-11-20T20:50:57.580Z,79.99
2018-11-20T20:53:59.585Z,79.87
2018-11-20T20:56:56.138Z,79.98
2018-11-20T20:59:40.869Z,79.88
2018-11-20T21:02:35.218Z,79.87
2018-11-20T21:05:34.716Z,79.78
2018-11-20T21:08:30.761Z,79.65
2018-11-20T21:11:35.171Z,79.84
2018-11-20T21:14:22.947Z,79.61
2018-11-20T21:17:12.013Z,79.50
2018-11-20T21:20:17.182Z,79.50
2018-11-20T21:23:19.113Z,79.58
2018-11-20T21:26:06.769Z,79.68
2018-11-20T21:28:41.905Z,79.36
2018-11-20T21:31:39.656Z,79.54
2018-11-20T21:34:30.912Z,79.56
2018-11-20T21:37:34.514Z,79.57
2018-11-20T21:40:41.824Z,79.43
2018-11-20T21:43:30.791Z,79.66
2018-11-20T21:46:18.199Z,79.80
2018-11-20T21:49:24.788Z,80.05
2018-11-20T21:52:23.737Z,79.99
2018-11-20T21:55:14.895Z,80.25
2018-11-20T21:57:59.528Z,80.31
2018-11-20T22:01:22.051Z,80.20
2018-11-20T22:04:16.151Z,80.40
2018-11-20T22:07:06.396Z,80.32
2018-11-20T22:09:52.917Z,80.50
2018-11-20T22:12:39.973Z,80.66
2018-11-20T22:15:27.190Z,80.70
2018-11-20T22:18:15.614Z,80.65
2018-11-20T22:21:20.003Z,80.55
2018-11-20T22:24:17.664Z,80.76
2018-11-20T22:27:05.262Z,80.90
2018-11-20T22:29:50.910Z,81.08
2018-11-20T22:33:00.750Z,80.92
2018-11-20T22:35:48.323Z,80.84
2018-11-20T22:38:32.114Z,80.79
2018-11-20T22:41:18.082Z,80.93
2018-11-20T22:44:07.307Z,80.99
2018-11-20T22:46:54.518Z,81.14
2018-11-20T22:49:38.099Z,81.06
2018-11-20T22:52:38.541Z,81.06
2018-11-20T22:55:26.479Z,80.98
2018-11-20T22:58:30.162Z,81.04
2018-11-20T23:01:17.640Z,80.91
2018-11-20T23:04:04.745Z,80.92
2018-11-20T23:06:53.395Z,81.16
2018-11-20T23:09:23.034Z,81.11
2018-11-20T23:11:52.491Z,81.18
2018-11-20T23:14:22.271Z,81.27
2018-11-20T23:16:55.262Z,81.17
2018-11-20T23:19:25.373Z,81.06
2018-11-20T23:21:55.363Z,81.18
2018-11-20T23:24:25.093Z,81.31
2018-11-20T23:26:54.698Z,81.44
2018-11-20T23:29:24.098Z,81.42
2018-11-20T23:31:54.205Z,81.32
2018-11-20T23:34:23.991Z,81.29
2018-11-20T23:36:53.984Z,81.29
2018-11-20T23:39:23.383Z,81.35
2018-11-20T23:41:52.799Z,81.38
2018-11-20T23:44:23.661Z,81.44
2018-11-20T23:46:58.377Z,81.25
2018-11-20T23:49:28.175Z,81.22
2018-11-20T23:51:57.573Z,81.45
2018-11-20T23:54:26.953Z,81.50
2018-11-20T23:56:56.367Z,81.53
2018-11-20T23:59:27.977Z,81.38
